Time;durP1;ratioP1;P1;durP2;ratioP2;P2;SDS_P1;SDS_P2;PMS_P1;PMS_P2;Temp;Humidity;BMP_temperature;BMP_pressure;BME280_temperature;BME280_humidity;BME280_pressure;Samples;Min_cycle;Max_cycle;Signal;HPM_P1;HPM_P2
2021/05/28 04:01:14;;;;;;;7.63;7.03;;;12.70;99.90;;;;;;5653894;23;20821;-63
2021/05/28 04:03:40;;;;;;;7.80;7.20;;;12.60;99.90;;;;;;5036885;28;20510;-63
2021/05/28 04:06:06;;;;;;;7.77;7.17;;;12.60;99.90;;;;;;5036412;28;20890;-62
2021/05/28 04:08:33;;;;;;;8.80;8.00;;;12.60;99.90;;;;;;5036471;28;20463;-63
2021/05/28 04:10:59;;;;;;;8.63;7.70;;;12.70;99.90;;;;;;5036448;28;20518;-62
2021/05/28 04:13:29;;;;;;;8.50;7.70;;;12.70;99.90;;;;;;5036573;28;20551;-62
2021/05/28 04:15:56;;;;;;;7.80;7.10;;;12.80;99.90;;;;;;5036534;28;20440;-61
2021/05/28 04:18:23;;;;;;;8.23;7.40;;;12.80;99.90;;;;;;5036718;28;20478;-61
2021/05/28 04:20:49;;;;;;;7.73;7.10;;;12.90;99.90;;;;;;5036994;28;20468;-61
2021/05/28 04:23:15;;;;;;;9.27;8.37;;;12.90;99.90;;;;;;5036490;28;20452;-62
2021/05/28 04:25:42;;;;;;;8.80;8.10;;;12.70;99.90;;;;;;5036087;28;20467;-62
2021/05/28 04:28:08;;;;;;;8.60;7.80;;;12.70;99.90;;;;;;5036327;28;20914;-62
2021/05/28 04:30:34;;;;;;;9.87;7.67;;;12.70;99.90;;;;;;5036563;28;20522;-62
2021/05/28 04:33:00;;;;;;;14.43;8.70;;;12.70;99.90;;;;;;5037852;28;20498;-62
2021/05/28 04:35:27;;;;;;;8.57;7.67;;;12.70;99.90;;;;;;5037393;28;20460;-61
2021/05/28 04:37:54;;;;;;;8.73;8.03;;;12.80;99.90;;;;;;5038098;28;20451;-62
2021/05/28 04:40:20;;;;;;;9.17;8.13;;;12.80;99.90;;;;;;5053619;28;20449;-62
2021/05/28 04:42:46;;;;;;;9.40;8.63;;;12.80;99.90;;;;;;5036696;28;20487;-62
2021/05/28 04:45:13;;;;;;;9.73;8.90;;;12.80;99.90;;;;;;5036611;28;20463;-62
2021/05/28 04:47:39;;;;;;;9.47;8.70;;;12.80;99.90;;;;;;5035754;28;20444;-62
2021/05/28 04:50:06;;;;;;;9.23;8.40;;;12.70;99.90;;;;;;5035767;28;20456;-62
2021/05/28 04:52:33;;;;;;;9.77;8.87;;;12.50;99.90;;;;;;5036110;28;20468;-62
2021/05/28 04:54:59;;;;;;;11.00;9.43;;;12.50;99.90;;;;;;5035472;28;20502;-62
2021/05/28 04:57:26;;;;;;;9.80;8.90;;;12.50;99.90;;;;;;5036346;28;20498;-63
2021/05/28 04:59:52;;;;;;;9.10;7.70;;;12.50;99.90;;;;;;5035875;28;20547;-61
2021/05/28 05:02:18;;;;;;;9.80;8.90;;;12.60;99.90;;;;;;5035047;28;20483;-62
2021/05/28 05:04:44;;;;;;;10.00;9.23;;;12.90;99.90;;;;;;5035306;28;20475;-62
2021/05/28 05:07:10;;;;;;;8.30;7.60;;;13.00;99.90;;;;;;5035652;28;20479;-62
2021/05/28 05:09:37;;;;;;;9.80;8.40;;;13.20;99.90;;;;;;5035729;28;20459;-62
2021/05/28 05:12:04;;;;;;;11.50;8.90;;;13.50;99.90;;;;;;5035392;28;20471;-62
2021/05/28 05:14:30;;;;;;;9.50;8.60;;;13.60;99.90;;;;;;5035628;28;20522;-62
2021/05/28 05:16:57;;;;;;;9.70;8.80;;;13.70;99.90;;;;;;5039276;28;20456;-63
2021/05/28 05:19:23;;;;;;;11.50;8.70;;;13.70;99.90;;;;;;5050334;28;20444;-62
2021/05/28 05:21:50;;;;;;;9.80;8.90;;;13.80;99.90;;;;;;5050473;28;20628;-63
2021/05/28 05:24:16;;;;;;;10.30;9.37;;;13.80;99.90;;;;;;5048250;28;20463;-62
2021/05/28 05:26:43;;;;;;;11.83;10.53;;;13.60;99.90;;;;;;5037913;28;20456;-62
2021/05/28 05:29:09;;;;;;;10.90;10.00;;;13.70;99.90;;;;;;5036153;28;20507;-62
2021/05/28 05:31:36;;;;;;;12.87;11.57;;;13.60;99.90;;;;;;5035670;28;20478;-62
2021/05/28 05:34:02;;;;;;;10.90;9.80;;;13.60;99.90;;;;;;5036117;28;20454;-62
2021/05/28 05:36:28;;;;;;;11.47;10.37;;;13.60;99.90;;;;;;5035596;28;20478;-62
2021/05/28 05:38:54;;;;;;;10.63;9.73;;;13.60;99.90;;;;;;5035376;28;20448;-62
2021/05/28 05:41:21;;;;;;;11.40;10.47;;;13.70;99.90;;;;;;5036225;28;20822;-62
2021/05/28 05:43:48;;;;;;;10.53;9.53;;;13.70;99.90;;;;;;5035994;28;20452;-61
2021/05/28 05:46:14;;;;;;;13.90;10.70;;;13.70;99.90;;;;;;5035272;28;20459;-61
2021/05/28 05:48:41;;;;;;;12.13;10.00;;;13.80;99.90;;;;;;5036128;28;20580;-62
2021/05/28 05:51:07;;;;;;;12.27;11.10;;;13.80;99.90;;;;;;5035582;28;20479;-61
2021/05/28 05:53:33;;;;;;;12.23;11.00;;;13.40;99.90;;;;;;5034976;28;20448;-61
2021/05/28 05:55:59;;;;;;;12.80;11.03;;;13.60;99.90;;;;;;5034999;28;20478;-62
2021/05/28 05:58:26;;;;;;;12.07;11.07;;;13.50;99.90;;;;;;5035439;28;20452;-63
2021/05/28 06:00:53;;;;;;;11.60;10.50;;;13.60;99.90;;;;;;5034736;28;20529;-62
2021/05/28 06:03:19;;;;;;;12.27;11.17;;;13.70;99.90;;;;;;5033972;28;20467;-62
2021/05/28 06:05:45;;;;;;;11.20;10.20;;;13.80;99.90;;;;;;5035160;28;20471;-62
2021/05/28 06:08:12;;;;;;;13.57;10.47;;;14.00;99.90;;;;;;5035501;28;20466;-65
2021/05/28 06:10:38;;;;;;;11.30;10.07;;;14.00;99.90;;;;;;5045243;28;20452;-64
2021/05/28 06:13:05;;;;;;;10.63;9.73;;;14.10;99.90;;;;;;5042639;28;20926;-61
2021/05/28 06:15:32;;;;;;;11.13;10.23;;;14.20;99.90;;;;;;5035685;28;20444;-61
2021/05/28 06:17:59;;;;;;;10.40;9.50;;;14.30;99.90;;;;;;5034661;28;20787;-62
2021/05/28 06:20:25;;;;;;;11.93;9.43;;;14.50;99.90;;;;;;5034763;28;20456;-62
2021/05/28 06:22:51;;;;;;;14.27;10.60;;;14.70;99.90;;;;;;5034756;28;20479;-65
2021/05/28 06:25:18;;;;;;;10.67;9.70;;;14.60;99.90;;;;;;5034508;28;20452;-65
2021/05/28 06:27:44;;;;;;;10.77;9.77;;;14.70;99.90;;;;;;5036567;28;20491;-65
2021/05/28 06:30:12;;;;;;;10.40;9.33;;;14.70;99.90;;;;;;5037120;28;20432;-65
2021/05/28 06:32:38;;;;;;;10.63;9.63;;;15.10;99.90;;;;;;5036205;28;20433;-66
2021/05/28 06:35:07;;;;;;;11.03;9.80;;;15.40;99.90;;;;;;5038972;28;20471;-66
2021/05/28 06:37:33;;;;;;;11.10;10.13;;;15.50;99.90;;;;;;5034953;28;20440;-66
2021/05/28 06:40:00;;;;;;;10.50;9.50;;;15.80;99.90;;;;;;5034416;28;20903;-66
2021/05/28 06:42:26;;;;;;;10.07;8.57;;;16.00;99.90;;;;;;5034415;28;20495;-62
2021/05/28 06:44:52;;;;;;;9.67;8.60;;;16.30;99.90;;;;;;5034695;28;20448;-62
2021/05/28 06:47:19;;;;;;;8.83;8.00;;;16.80;99.90;;;;;;5034637;28;20472;-62
2021/05/28 06:49:45;;;;;;;11.10;9.93;;;16.80;99.90;;;;;;5034900;28;20471;-62
2021/05/28 06:52:12;;;;;;;8.60;7.80;;;16.90;99.90;;;;;;5037982;28;20491;-61
2021/05/28 06:54:39;;;;;;;9.80;8.80;;;16.20;99.90;;;;;;5036562;28;20850;-61
2021/05/28 06:57:05;;;;;;;9.70;8.83;;;16.50;99.90;;;;;;5034556;28;20495;-61
2021/05/28 06:59:31;;;;;;;8.37;7.57;;;16.30;99.90;;;;;;5036175;28;20448;-62
2021/05/28 07:01:58;;;;;;;9.73;8.93;;;16.60;99.90;;;;;;5034558;28;20990;-61
2021/05/28 07:04:25;;;;;;;8.53;7.73;;;17.00;99.90;;;;;;5035515;28;20451;-62
2021/05/28 07:06:51;;;;;;;9.43;8.53;;;17.00;99.90;;;;;;5034251;28;20494;-62
2021/05/28 07:09:18;;;;;;;10.20;9.20;;;17.10;99.90;;;;;;5035054;28;20452;-62
2021/05/28 07:11:45;;;;;;;8.57;7.80;;;17.20;99.90;;;;;;5034922;28;20464;-60
2021/05/28 07:14:11;;;;;;;9.77;8.87;;;17.10;99.90;;;;;;5037212;28;20780;-61
2021/05/28 07:16:37;;;;;;;10.83;8.83;;;17.20;99.90;;;;;;5038536;28;20451;-62
2021/05/28 07:19:04;;;;;;;10.60;8.83;;;17.10;99.90;;;;;;5038263;28;20452;-61
2021/05/28 07:21:30;;;;;;;10.63;8.90;;;16.90;99.90;;;;;;5038962;28;20479;-60
2021/05/28 07:23:57;;;;;;;9.27;8.27;;;17.00;99.90;;;;;;5039113;28;20458;-61
2021/05/28 07:26:24;;;;;;;8.80;8.00;;;17.00;99.90;;;;;;5039375;28;20456;-61
2021/05/28 07:28:50;;;;;;;8.50;7.80;;;16.60;99.90;;;;;;5038759;28;20436;-60
2021/05/28 07:31:17;;;;;;;9.07;8.20;;;16.80;99.90;;;;;;5038895;28;20476;-60
2021/05/28 07:33:43;;;;;;;7.37;6.87;;;16.70;99.90;;;;;;5038850;28;20455;-61
2021/05/28 07:36:10;;;;;;;8.80;7.67;;;16.90;99.90;;;;;;5038687;28;20459;-62
2021/05/28 07:38:36;;;;;;;7.73;7.07;;;17.00;99.90;;;;;;5038279;28;20973;-62
2021/05/28 07:41:02;;;;;;;10.10;6.67;;;17.50;99.90;;;;;;5038773;28;20491;-61
2021/05/28 07:43:29;;;;;;;10.17;7.80;;;18.00;99.90;;;;;;5055242;28;20456;-65
2021/05/28 07:45:58;;;;;;;7.30;6.70;;;18.20;99.90;;;;;;5039910;28;20448;-65
2021/05/28 07:48:24;;;;;;;10.90;8.37;;;18.50;99.90;;;;;;5038026;28;20519;-65
2021/05/28 07:50:56;;;;;;;9.97;8.30;;;18.60;99.90;;;;;;5038112;28;20476;-65
2021/05/28 07:53:24;;;;;;;8.63;7.93;;;18.20;99.90;;;;;;5038578;28;20486;-66
2021/05/28 07:55:51;;;;;;;7.80;7.10;;;17.90;99.90;;;;;;5037194;28;21017;-66
2021/05/28 07:58:18;;;;;;;8.97;8.10;;;17.80;99.90;;;;;;5038397;28;20456;-65
2021/05/28 08:00:45;;;;;;;9.53;8.63;;;17.90;99.90;;;;;;5037557;28;20559;-65
2021/05/28 08:03:12;;;;;;;8.50;7.70;;;18.00;99.90;;;;;;5037665;28;20476;-65
2021/05/28 08:05:38;;;;;;;9.47;8.67;;;18.00;99.90;;;;;;5037747;28;20523;-66
2021/05/28 08:08:09;;;;;;;10.63;9.53;;;17.60;99.90;;;;;;5038489;28;20462;-66
2021/05/28 08:10:35;;;;;;;9.03;8.03;;;17.40;99.90;;;;;;5038129;28;20479;-66
2021/05/28 08:13:02;;;;;;;13.07;9.43;;;17.50;99.90;;;;;;5037218;28;20459;-66
2021/05/28 08:15:30;;;;;;;11.30;10.20;;;17.20;99.90;;;;;;5036873;28;20456;-66
2021/05/28 08:17:58;;;;;;;10.80;9.70;;;16.90;99.90;;;;;;5037505;28;20510;-63
2021/05/28 08:20:24;;;;;;;10.17;9.33;;;16.40;99.90;;;;;;5036973;28;20467;-62
2021/05/28 08:22:52;;;;;;;9.83;9.00;;;16.30;99.90;;;;;;5036962;28;20471;-66
2021/05/28 08:25:19;;;;;;;11.50;8.20;;;16.40;99.90;;;;;;5038658;28;20463;-66
2021/05/28 08:27:45;;;;;;;8.73;8.03;;;16.40;99.90;;;;;;5039148;28;20452;-65
2021/05/28 08:30:14;;;;;;;11.03;8.27;;;16.30;99.90;;;;;;5036910;28;20456;-65
2021/05/28 08:32:40;;;;;;;9.10;8.23;;;16.60;99.90;;;;;;5037099;28;20506;-64
2021/05/28 08:35:09;;;;;;;8.20;7.50;;;16.60;99.90;;;;;;5037118;28;20452;-65
2021/05/28 08:37:35;;;;;;;9.23;8.40;;;16.80;99.90;;;;;;5036192;28;20456;-64
2021/05/28 08:40:02;;;;;;;8.43;7.73;;;17.40;99.90;;;;;;5036704;28;20463;-64
2021/05/28 08:42:29;;;;;;;7.57;6.67;;;18.00;99.90;;;;;;5037279;28;20479;-64
2021/05/28 08:44:56;;;;;;;7.17;6.67;;;18.70;99.90;;;;;;5036479;28;20448;-64
2021/05/28 08:47:22;;;;;;;10.47;7.50;;;18.80;99.90;;;;;;5036821;28;20452;-64
2021/05/28 08:49:50;;;;;;;8.07;7.33;;;18.60;99.90;;;;;;5036511;28;20452;-64
2021/05/28 08:52:19;;;;;;;9.43;8.67;;;18.40;99.90;;;;;;5036322;28;20468;-64
2021/05/28 08:54:45;;;;;;;9.40;7.13;;;18.30;99.90;;;;;;5036504;28;20456;-63
2021/05/28 08:57:12;;;;;;;8.77;8.10;;;18.30;99.90;;;;;;5036093;28;20506;-64
2021/05/28 08:59:38;;;;;;;8.60;7.90;;;18.40;99.90;;;;;;5036322;28;20456;-61
2021/05/28 09:02:05;;;;;;;8.07;7.47;;;18.50;99.90;;;;;;5035937;28;20484;-61
2021/05/28 09:04:31;;;;;;;7.33;6.70;;;18.70;99.90;;;;;;5036813;28;20487;-61
2021/05/28 09:06:57;;;;;;;8.03;6.77;;;18.90;99.90;;;;;;5036059;28;20459;-65
2021/05/28 09:09:24;;;;;;;8.60;7.60;;;19.10;99.90;;;;;;5036415;28;20452;-65
2021/05/28 09:11:53;;;;;;;7.50;6.80;;;19.30;99.90;;;;;;5037262;28;20538;-65
2021/05/28 09:14:32;;;;;;;7.60;7.00;;;19.20;99.90;;;;;;5037611;28;20884;-66
2021/05/28 09:16:59;;;;;;;8.17;7.57;;;19.00;99.90;;;;;;5051474;28;20440;-65
2021/05/28 09:19:25;;;;;;;7.73;7.07;;;18.80;99.90;;;;;;5036697;28;20533;-65
2021/05/28 09:21:57;;;;;;;8.20;6.90;;;18.40;99.90;;;;;;5036081;28;20475;-65
2021/05/28 09:24:30;;;;;;;10.47;7.87;;;18.70;99.90;;;;;;5036197;28;20486;-65
2021/05/28 09:26:56;;;;;;;9.37;8.00;;;18.90;99.90;;;;;;5036321;28;20436;-65
2021/05/28 09:29:23;;;;;;;7.47;6.77;;;18.80;99.90;;;;;;5035761;28;20451;-66
2021/05/28 09:31:49;;;;;;;9.90;7.50;;;18.70;99.90;;;;;;5036377;28;20472;-65
2021/05/28 09:34:26;;;;;;;7.67;6.80;;;18.70;99.90;;;;;;5036249;28;20455;-65
2021/05/28 09:36:53;;;;;;;7.63;6.93;;;18.70;99.90;;;;;;5034516;28;20439;-66
2021/05/28 09:39:19;;;;;;;8.90;7.93;;;18.60;99.90;;;;;;5036264;28;20499;-66
2021/05/28 09:41:49;;;;;;;10.50;7.10;;;18.60;99.90;;;;;;5036264;28;20590;-65
2021/05/28 09:44:18;;;;;;;12.60;6.37;;;18.70;99.90;;;;;;5036819;28;20452;-64
2021/05/28 09:47:02;;;;;;;7.27;6.67;;;18.80;99.90;;;;;;5035899;28;20478;-64
2021/05/28 09:49:30;;;;;;;7.67;6.97;;;18.90;99.90;;;;;;5035385;28;20460;-63
2021/05/28 09:52:11;;;;;;;12.73;8.03;;;18.70;99.90;;;;;;5035216;28;20989;-63
2021/05/28 09:54:40;;;;;;;12.70;7.00;;;18.70;99.90;;;;;;5035715;28;20455;-63
2021/05/28 09:57:27;;;;;;;6.77;5.83;;;18.90;99.90;;;;;;5036132;28;20463;-66
2021/05/28 09:59:53;;;;;;;5.90;5.50;;;19.80;99.90;;;;;;5036775;28;20447;-64
2021/05/28 10:02:27;;;;;;;7.40;6.33;;;21.20;99.90;;;;;;5034620;28;20892;-64
2021/05/28 10:04:55;;;;;;;6.93;6.13;;;21.80;99.90;;;;;;5034749;28;20475;-64
2021/05/28 10:07:22;;;;;;;5.80;5.30;;;22.40;99.90;;;;;;5035846;28;20432;-65
2021/05/28 10:09:48;;;;;;;5.40;5.00;;;22.20;99.60;;;;;;5036561;28;20462;-65
2021/05/28 10:12:15;;;;;;;5.27;4.87;;;22.70;99.30;;;;;;5035194;28;20490;-65
2021/05/28 10:14:42;;;;;;;5.57;5.17;;;23.10;98.90;;;;;;5035618;28;20452;-65
2021/05/28 10:17:08;;;;;;;5.37;4.93;;;22.90;97.10;;;;;;5035508;28;20448;-65
2021/05/28 10:19:35;;;;;;;5.73;5.23;;;23.20;96.40;;;;;;5036116;28;20523;-65
2021/05/28 10:22:02;;;;;;;6.10;5.60;;;23.50;94.30;;;;;;5034214;28;20850;-67
2021/05/28 10:24:30;;;;;;;5.60;5.20;;;23.20;93.90;;;;;;5034875;28;20946;-67
2021/05/28 10:26:56;;;;;;;5.50;4.20;;;23.20;94.80;;;;;;5035712;28;20459;-66
2021/05/28 10:29:27;;;;;;;4.43;4.10;;;23.40;91.90;;;;;;5035209;28;20981;-66
2021/05/28 10:31:55;;;;;;;5.17;4.77;;;23.30;90.20;;;;;;5034632;28;20513;-66
2021/05/28 10:34:22;;;;;;;5.40;3.97;;;22.40;89.80;;;;;;5034441;28;20436;-66
2021/05/28 10:36:48;;;;;;;4.40;4.03;;;21.90;91.60;;;;;;5034016;28;20914;-66
2021/05/28 10:39:16;;;;;;;4.87;4.47;;;21.40;91.30;;;;;;5034306;28;20441;-66
2021/05/28 10:41:45;;;;;;;5.00;4.60;;;21.10;92.90;;;;;;5036265;28;20530;-63
2021/05/28 10:44:22;;;;;;;6.57;5.10;;;20.90;92.50;;;;;;5034641;28;20474;-64
2021/05/28 10:46:54;;;;;;;4.83;4.30;;;20.30;92.30;;;;;;5042843;28;20424;-64
2021/05/28 10:49:37;;;;;;;4.03;3.60;;;20.10;93.20;;;;;;5048545;28;20517;-61
2021/05/28 10:52:05;;;;;;;4.23;3.83;;;19.70;94.30;;;;;;5038805;28;20573;-63
2021/05/28 10:54:36;;;;;;;4.33;3.93;;;19.80;95.50;;;;;;5038560;28;20490;-63
2021/05/28 10:57:25;;;;;;;4.30;3.90;;;19.80;94.40;;;;;;5038546;28;20458;-62
2021/05/28 10:59:57;;;;;;;4.13;3.83;;;19.70;95.80;;;;;;5038166;28;20437;-62
2021/05/28 11:02:54;;;;;;;4.33;4.03;;;19.50;94.70;;;;;;5037185;28;20487;-62
2021/05/28 11:05:59;;;;;;;4.13;3.83;;;19.80;95.60;;;;;;5038323;28;20451;-62
2021/05/28 11:08:43;;;;;;;4.47;4.03;;;20.40;95.50;;;;;;5034275;28;20455;-62
2021/05/28 11:11:57;;;;;;;4.53;4.10;;;21.20;94.40;;;;;;5037597;28;20475;-62
2021/05/28 11:14:24;;;;;;;3.90;3.60;;;22.00;94.30;;;;;;5038345;28;20444;-62
2021/05/28 11:17:18;;;;;;;4.10;3.80;;;22.90;89.80;;;;;;5039006;28;20451;-62
2021/05/28 11:19:47;;;;;;;3.77;3.57;;;22.60;91.20;;;;;;5028775;28;20870;-65
2021/05/28 11:22:24;;;;;;;4.60;4.20;;;23.30;92.30;;;;;;5037616;28;20510;-65
2021/05/28 11:25:00;;;;;;;5.00;3.70;;;23.60;82.50;;;;;;5037554;28;20436;-66
2021/05/28 11:27:55;;;;;;;4.47;4.07;;;24.00;83.00;;;;;;5037534;28;20447;-66
2021/05/28 11:30:24;;;;;;;3.73;3.53;;;23.90;87.70;;;;;;5038261;28;20439;-65
2021/05/28 11:32:51;;;;;;;4.47;4.17;;;23.90;85.40;;;;;;5038790;28;20865;-65
2021/05/28 11:35:20;;;;;;;3.50;3.30;;;23.50;88.90;;;;;;5037539;28;20452;-65
2021/05/28 11:37:50;;;;;;;4.00;3.70;;;23.50;89.40;;;;;;5037255;28;20451;-65
2021/05/28 11:40:18;;;;;;;3.70;3.50;;;22.80;87.50;;;;;;5036933;28;20459;-64
2021/05/28 11:42:44;;;;;;;3.17;2.80;;;22.60;90.00;;;;;;5037316;28;20475;-65
2021/05/28 11:45:13;;;;;;;3.97;3.57;;;22.40;89.70;;;;;;5036959;28;20778;-65
2021/05/28 11:47:40;;;;;;;3.40;3.20;;;21.90;91.10;;;;;;5037658;28;20555;-60
2021/05/28 11:50:09;;;;;;;3.90;3.60;;;21.70;90.80;;;;;;5037293;28;20459;-60
2021/05/28 11:52:37;;;;;;;3.30;3.10;;;21.30;90.80;;;;;;5036957;28;20487;-63
2021/05/28 11:55:09;;;;;;;4.03;2.73;;;21.50;91.50;;;;;;5037462;28;20480;-64
2021/05/28 11:57:36;;;;;;;3.20;2.90;;;22.10;93.20;;;;;;5037225;28;20437;-64
2021/05/28 12:00:07;;;;;;;3.70;3.23;;;22.40;92.40;;;;;;5036200;28;20448;-63
2021/05/28 12:02:35;;;;;;;4.13;3.43;;;22.60;91.20;;;;;;5036876;28;20824;-64
2021/05/28 12:05:01;;;;;;;3.00;2.90;;;22.50;88.20;;;;;;5037408;28;20452;-64
2021/05/28 12:07:31;;;;;;;2.93;2.80;;;22.10;88.00;;;;;;5036766;28;20452;-64
2021/05/28 12:10:03;;;;;;;4.63;3.27;;;21.80;90.40;;;;;;5037448;28;20460;-64
2021/05/28 12:12:52;;;;;;;4.63;3.40;;;22.30;91.20;;;;;;5036716;28;20468;-64
2021/05/28 12:15:21;;;;;;;3.07;2.87;;;22.30;87.20;;;;;;5037087;28;20451;-64
2021/05/28 12:17:48;;;;;;;3.37;2.83;;;22.10;87.20;;;;;;5037322;28;20527;-62
2021/05/28 12:20:20;;;;;;;3.33;3.10;;;22.30;91.70;;;;;;5052100;28;20428;-62
2021/05/28 12:23:00;;;;;;;3.00;2.73;;;22.50;88.00;;;;;;5045332;28;20478;-63
2021/05/28 12:25:29;;;;;;;2.93;2.83;;;22.80;88.30;;;;;;5042360;28;20440;-63
2021/05/28 12:28:07;;;;;;;2.90;2.50;;;22.70;87.20;;;;;;5038610;28;20461;-63
2021/05/28 12:30:34;;;;;;;3.43;3.17;;;22.90;89.70;;;;;;5038533;28;20855;-63
2021/05/28 12:33:00;;;;;;;3.13;2.93;;;22.30;88.50;;;;;;5038091;28;20444;-62
2021/05/28 12:35:27;;;;;;;2.70;2.50;;;22.30;89.30;;;;;;5037244;28;20447;-62
2021/05/28 12:38:17;;;;;;;3.20;2.90;;;22.00;89.90;;;;;;5037113;28;20884;-62
2021/05/28 12:40:47;;;;;;;3.23;3.03;;;21.70;88.40;;;;;;5029693;28;20486;-63
2021/05/28 12:43:21;;;;;;;4.37;2.60;;;21.40;89.10;;;;;;5040497;28;20479;-62
2021/05/28 12:45:48;;;;;;;3.17;2.97;;;21.20;91.30;;;;;;5040919;28;20528;-62
2021/05/28 12:48:14;;;;;;;3.10;2.90;;;20.60;90.30;;;;;;5041863;28;20463;-63
2021/05/28 12:50:43;;;;;;;2.07;1.97;;;20.70;92.10;;;;;;5042114;28;20475;-62
2021/05/28 12:53:11;;;;;;;1.80;1.70;;;20.60;84.80;;;;;;5042776;28;20448;-62
2021/05/28 12:55:40;;;;;;;2.23;2.13;;;21.10;87.80;;;;;;5040864;28;20519;-62
2021/05/28 12:58:20;;;;;;;2.20;2.10;;;21.70;85.50;;;;;;5040105;28;20455;-63
2021/05/28 13:00:57;;;;;;;2.40;2.20;;;22.10;86.70;;;;;;5039060;28;20475;-62
2021/05/28 13:03:34;;;;;;;4.90;2.40;;;22.10;85.00;;;;;;5037532;28;20467;-62
2021/05/28 13:06:28;;;;;;;2.10;2.00;;;22.30;86.60;;;;;;5036007;28;20506;-62
2021/05/28 13:08:55;;;;;;;3.93;2.30;;;22.10;85.50;;;;;;5036441;28;20476;-62
2021/05/28 13:11:22;;;;;;;2.33;2.23;;;22.20;90.40;;;;;;5037797;28;20895;-63
2021/05/28 13:13:51;;;;;;;2.27;2.17;;;22.00;87.90;;;;;;5038506;28;20597;-61
2021/05/28 13:16:25;;;;;;;2.00;1.90;;;21.90;87.00;;;;;;5036515;28;20990;-62
2021/05/28 13:18:52;;;;;;;2.43;2.33;;;21.80;86.60;;;;;;5035792;28;20907;-62
2021/05/28 13:21:24;;;;;;;2.73;2.60;;;21.80;89.10;;;;;;5036612;28;20476;-61
2021/05/28 13:23:50;;;;;;;2.27;2.07;;;21.60;87.60;;;;;;5036240;28;20476;-60
2021/05/28 13:26:17;;;;;;;4.83;2.00;;;20.90;87.50;;;;;;5035988;28;20460;-61
2021/05/28 13:28:45;;;;;;;2.20;1.60;;;20.80;89.00;;;;;;5035456;28;20506;-61
2021/05/28 13:31:14;;;;;;;3.13;1.70;;;20.50;87.40;;;;;;5035863;28;20963;-61
2021/05/28 13:33:41;;;;;;;2.00;1.90;;;20.30;83.70;;;;;;5036223;28;20459;-61
2021/05/28 13:36:09;;;;;;;2.30;2.10;;;20.30;85.60;;;;;;5035825;28;20459;-61
2021/05/28 13:38:40;;;;;;;1.80;1.70;;;20.50;88.70;;;;;;5035025;28;20456;-61
2021/05/28 13:41:09;;;;;;;2.10;1.83;;;20.60;88.40;;;;;;5035216;28;20822;-59
2021/05/28 13:43:36;;;;;;;3.30;2.40;;;20.80;87.90;;;;;;5036296;28;20468;-60
2021/05/28 13:46:04;;;;;;;2.33;2.10;;;20.80;86.60;;;;;;5035151;28;20452;-60
2021/05/28 13:48:32;;;;;;;2.30;2.20;;;20.50;89.10;;;;;;5035339;28;20452;-63
2021/05/28 13:50:59;;;;;;;1.53;1.53;;;20.80;87.00;;;;;;5035920;28;20480;-61
2021/05/28 13:53:25;;;;;;;2.27;2.17;;;21.10;89.70;;;;;;5051056;28;20436;-62
2021/05/28 13:55:51;;;;;;;2.80;2.60;;;21.10;86.80;;;;;;5035607;28;20456;-62
2021/05/28 13:58:18;;;;;;;2.20;2.10;;;21.30;87.10;;;;;;5035151;28;20789;-62
2021/05/28 14:00:44;;;;;;;4.77;2.10;;;21.50;89.90;;;;;;5035760;28;20480;-62
2021/05/28 14:03:11;;;;;;;2.00;2.00;;;21.70;89.30;;;;;;5034899;28;20463;-61
2021/05/28 14:05:39;;;;;;;1.67;1.67;;;21.40;85.60;;;;;;5035558;28;20479;-61
2021/05/28 14:08:07;;;;;;;2.80;1.73;;;21.50;91.70;;;;;;5035611;28;20455;-62
2021/05/28 14:10:33;;;;;;;2.13;1.77;;;21.70;90.30;;;;;;5035762;28;20451;-61
2021/05/28 14:12:59;;;;;;;2.20;1.90;;;21.80;89.30;;;;;;5035068;28;20447;-61
2021/05/28 14:15:26;;;;;;;2.40;2.10;;;21.30;86.00;;;;;;5035495;28;20452;-62
2021/05/28 14:17:53;;;;;;;2.60;2.40;;;21.10;91.40;;;;;;5035157;28;20459;-62
2021/05/28 14:20:22;;;;;;;2.30;2.10;;;21.20;89.10;;;;;;5035198;28;20490;-62
2021/05/28 14:22:49;;;;;;;4.93;2.57;;;21.20;90.30;;;;;;5034865;28;20825;-61
2021/05/28 14:25:17;;;;;;;3.63;2.67;;;21.30;91.60;;;;;;5034975;28;20456;-61
2021/05/28 14:27:45;;;;;;;2.33;1.93;;;21.40;90.00;;;;;;5038885;28;20456;-61
2021/05/28 14:30:12;;;;;;;1.87;1.77;;;21.10;87.40;;;;;;5036240;28;20456;-62
2021/05/28 14:32:40;;;;;;;2.27;2.03;;;20.80;87.80;;;;;;5036693;28;20486;-64
2021/05/28 14:35:08;;;;;;;3.43;2.33;;;20.70;89.00;;;;;;5035624;28;20505;-65
2021/05/28 14:37:34;;;;;;;3.63;2.83;;;20.20;90.30;;;;;;5035072;28;20451;-65
2021/05/28 14:40:02;;;;;;;2.37;1.80;;;20.10;90.40;;;;;;5035079;28;20486;-65
2021/05/28 14:42:29;;;;;;;2.13;2.03;;;20.00;90.70;;;;;;5035179;28;20974;-65
2021/05/28 14:44:55;;;;;;;2.00;1.90;;;20.00;91.70;;;;;;5034674;28;20460;-65
2021/05/28 14:47:21;;;;;;;1.93;1.83;;;19.90;90.90;;;;;;5041495;28;20440;-65
2021/05/28 14:49:47;;;;;;;2.27;2.03;;;19.70;90.40;;;;;;5053514;28;20547;-65
2021/05/28 14:52:13;;;;;;;2.13;2.03;;;19.40;91.30;;;;;;5035402;28;20997;-64
2021/05/28 14:54:40;;;;;;;1.90;1.80;;;19.20;92.00;;;;;;5035704;28;20907;-65
2021/05/28 14:57:07;;;;;;;3.30;2.40;;;19.00;91.80;;;;;;5035345;28;20467;-65
2021/05/28 14:59:33;;;;;;;2.20;1.97;;;19.00;93.10;;;;;;5036142;28;20455;-65
2021/05/28 15:02:00;;;;;;;3.33;1.90;;;18.90;93.90;;;;;;5034953;28;20484;-64
2021/05/28 15:04:26;;;;;;;3.70;1.40;;;19.00;93.20;;;;;;5034755;28;20448;-66
2021/05/28 15:06:52;;;;;;;2.20;1.60;;;19.10;92.70;;;;;;5034161;28;20452;-65
2021/05/28 15:09:20;;;;;;;1.87;1.77;;;19.30;92.00;;;;;;5034732;28;20851;-64
2021/05/28 15:11:46;;;;;;;2.50;2.30;;;19.70;93.40;;;;;;5034120;28;20797;-65
2021/05/28 15:14:13;;;;;;;2.40;2.20;;;19.80;92.80;;;;;;5034475;28;20475;-65
2021/05/28 15:16:42;;;;;;;1.63;1.60;;;20.10;93.20;;;;;;5033695;28;20459;-64
2021/05/28 15:19:09;;;;;;;1.67;1.60;;;20.20;90.70;;;;;;5034175;28;20448;-65
2021/05/28 15:21:36;;;;;;;1.30;1.30;;;20.00;91.60;;;;;;5033754;28;20472;-65
2021/05/28 15:24:03;;;;;;;1.70;1.60;;;20.30;91.40;;;;;;5038754;28;20554;-65
2021/05/28 15:26:29;;;;;;;1.73;1.63;;;20.50;91.10;;;;;;5034630;28;20906;-65
2021/05/28 15:28:57;;;;;;;2.13;1.80;;;20.40;91.00;;;;;;5033926;28;20539;-66
2021/05/28 15:31:24;;;;;;;2.30;1.77;;;20.70;90.50;;;;;;5033691;28;20476;-65
2021/05/28 15:33:50;;;;;;;1.97;1.80;;;21.20;91.50;;;;;;5033494;28;20866;-65
2021/05/28 15:36:17;;;;;;;1.60;1.50;;;21.10;87.70;;;;;;5035962;28;20458;-65
2021/05/28 15:38:43;;;;;;;1.80;1.70;;;21.20;89.40;;;;;;5036791;28;20460;-65
2021/05/28 15:41:10;;;;;;;1.90;1.43;;;21.30;87.10;;;;;;5036700;28;20467;-66
2021/05/28 15:43:37;;;;;;;1.70;1.60;;;21.30;88.40;;;;;;5036169;28;20525;-66
2021/05/28 15:46:04;;;;;;;3.37;1.33;;;21.20;86.40;;;;;;5036203;28;20459;-67
2021/05/28 15:48:32;;;;;;;1.50;1.40;;;21.10;85.30;;;;;;5036001;28;20478;-66
2021/05/28 15:50:59;;;;;;;1.60;1.60;;;20.90;87.80;;;;;;5036382;28;20472;-66
2021/05/28 15:53:25;;;;;;;2.47;1.87;;;21.00;90.50;;;;;;5036439;28;20456;-65
2021/05/28 15:55:52;;;;;;;2.23;2.03;;;20.80;89.20;;;;;;5037542;28;20455;-65
2021/05/28 15:58:19;;;;;;;2.57;1.93;;;20.70;90.70;;;;;;5036937;28;20448;-65
2021/05/28 16:00:46;;;;;;;2.83;1.90;;;20.60;90.70;;;;;;5001011;28;1023410;-65
2021/05/28 16:03:14;;;;;;;3.33;1.83;;;20.60;90.50;;;;;;5038788;28;20221;-65
2021/05/28 16:05:43;;;;;;;3.10;2.73;;;20.60;90.90;;;;;;5036618;28;20459;-65
2021/05/28 16:08:12;;;;;;;1.87;1.77;;;20.50;90.10;;;;;;5038066;28;20463;-65
2021/05/28 16:10:38;;;;;;;2.30;2.10;;;20.40;90.30;;;;;;5037022;28;20479;-65
2021/05/28 16:13:05;;;;;;;2.23;2.10;;;20.30;90.70;;;;;;5037270;28;20452;-65
2021/05/28 16:15:31;;;;;;;14.97;2.80;;;20.10;90.80;;;;;;5036718;28;20456;-66
2021/05/28 16:17:57;;;;;;;3.40;1.80;;;20.10;91.20;;;;;;5038724;28;20459;-66
2021/05/28 16:20:24;;;;;;;4.30;2.00;;;20.10;91.00;;;;;;5036321;28;20452;-65
2021/05/28 16:22:51;;;;;;;1.63;1.60;;;20.10;91.70;;;;;;5037052;28;20476;-65
2021/05/28 16:25:18;;;;;;;7.43;2.03;;;20.00;91.10;;;;;;5037362;28;20562;-64
2021/05/28 16:27:44;;;;;;;3.07;2.50;;;19.90;90.60;;;;;;5037416;28;20459;-64
2021/05/28 16:30:12;;;;;;;1.67;1.67;;;20.00;91.70;;;;;;5036588;28;20452;-65
2021/05/28 16:32:39;;;;;;;2.87;1.57;;;19.90;91.30;;;;;;5037800;28;20479;-65
2021/05/28 16:35:07;;;;;;;2.13;1.93;;;19.90;90.80;;;;;;5036781;28;20459;-65
2021/05/28 16:37:34;;;;;;;3.03;1.87;;;19.50;90.00;;;;;;5036713;28;20452;-64
2021/05/28 16:40:01;;;;;;;1.80;1.70;;;19.40;89.60;;;;;;5036329;28;20447;-65
2021/05/28 16:42:29;;;;;;;1.57;1.47;;;19.30;90.20;;;;;;5036278;28;20974;-65
2021/05/28 16:44:55;;;;;;;1.70;1.60;;;19.40;89.10;;;;;;5036522;28;20463;-65
2021/05/28 16:47:21;;;;;;;3.93;1.67;;;19.40;89.30;;;;;;5036133;28;20452;-65
2021/05/28 16:49:48;;;;;;;2.90;2.63;;;19.20;89.00;;;;;;5037502;28;20834;-65